sensor_id;sensor_type;location;lat;lon;timestamp;P1;durP1;ratioP1;P2;durP2;ratioP2
53519;SDS011;39397;53.204;5.778;2023-03-01T00:01:25;43.92;;;19.88;;
53519;SDS011;39397;53.204;5.778;2023-03-01T00:03:53;36.40;;;17.98;;
53519;SDS011;39397;53.204;5.778;2023-03-01T00:06:20;34.03;;;17.80;;
53519;SDS011;39397;53.204;5.778;2023-03-01T00:08:47;31.58;;;16.60;;
53519;SDS011;39397;53.204;5.778;2023-03-01T00:11:14;36.47;;;17.60;;
53519;SDS011;39397;53.204;5.778;2023-03-01T00:13:43;33.92;;;18.38;;
53519;SDS011;39397;53.204;5.778;2023-03-01T00:16:11;34.97;;;17.73;;
53519;SDS011;39397;53.204;5.778;2023-03-01T00:18:39;33.17;;;17.42;;
53519;SDS011;39397;53.204;5.778;2023-03-01T00:21:05;29.38;;;17.60;;
53519;SDS011;39397;53.204;5.778;2023-03-01T00:23:33;32.80;;;18.05;;
53519;SDS011;39397;53.204;5.778;2023-03-01T00:25:59;32.20;;;17.20;;
53519;SDS011;39397;53.204;5.778;2023-03-01T00:28:25;29.77;;;16.73;;
53519;SDS011;39397;53.204;5.778;2023-03-01T00:30:51;29.77;;;16.58;;
53519;SDS011;39397;53.204;5.778;2023-03-01T00:33:17;30.92;;;17.95;;
53519;SDS011;39397;53.204;5.778;2023-03-01T00:35:43;34.88;;;17.58;;
53519;SDS011;39397;53.204;5.778;2023-03-01T00:38:09;28.92;;;16.23;;
53519;SDS011;39397;53.204;5.778;2023-03-01T00:40:35;36.53;;;18.20;;
53519;SDS011;39397;53.204;5.778;2023-03-01T00:43:02;30.58;;;16.77;;
53519;SDS011;39397;53.204;5.778;2023-03-01T00:45:28;28.75;;;16.13;;
53519;SDS011;39397;53.204;5.778;2023-03-01T00:47:56;31.85;;;18.02;;
53519;SDS011;39397;53.204;5.778;2023-03-01T00:50:22;33.05;;;17.80;;
53519;SDS011;39397;53.204;5.778;2023-03-01T00:52:51;28.83;;;16.27;;
53519;SDS011;39397;53.204;5.778;2023-03-01T00:55:18;32.75;;;16.63;;
53519;SDS011;39397;53.204;5.778;2023-03-01T00:57:44;30.58;;;16.67;;
53519;SDS011;39397;53.204;5.778;2023-03-01T01:00:10;26.77;;;15.80;;
53519;SDS011;39397;53.204;5.778;2023-03-01T01:02:36;26.45;;;15.55;;
53519;SDS011;39397;53.204;5.778;2023-03-01T01:05:02;28.95;;;15.77;;
53519;SDS011;39397;53.204;5.778;2023-03-01T01:07:29;28.38;;;15.45;;
53519;SDS011;39397;53.204;5.778;2023-03-01T01:09:55;28.77;;;15.55;;
53519;SDS011;39397;53.204;5.778;2023-03-01T01:12:21;25.25;;;15.20;;
53519;SDS011;39397;53.204;5.778;2023-03-01T01:14:47;25.33;;;13.82;;
53519;SDS011;39397;53.204;5.778;2023-03-01T01:17:12;23.38;;;13.65;;
53519;SDS011;39397;53.204;5.778;2023-03-01T01:19:38;22.50;;;12.52;;
53519;SDS011;39397;53.204;5.778;2023-03-01T01:22:04;43.53;;;12.25;;
53519;SDS011;39397;53.204;5.778;2023-03-01T01:24:29;66.57;;;12.32;;
53519;SDS011;39397;53.204;5.778;2023-03-01T01:26:55;29.45;;;10.18;;
53519;SDS011;39397;53.204;5.778;2023-03-01T01:29:21;22.48;;;11.35;;
53519;SDS011;39397;53.204;5.778;2023-03-01T01:31:47;24.00;;;10.95;;
53519;SDS011;39397;53.204;5.778;2023-03-01T01:34:16;29.52;;;11.75;;
53519;SDS011;39397;53.204;5.778;2023-03-01T01:36:47;20.45;;;10.77;;
53519;SDS011;39397;53.204;5.778;2023-03-01T01:41:44;42.88;;;11.38;;
53519;SDS011;39397;53.204;5.778;2023-03-01T01:44:20;21.30;;;10.68;;
53519;SDS011;39397;53.204;5.778;2023-03-01T01:46:55;25.90;;;11.52;;
53519;SDS011;39397;53.204;5.778;2023-03-01T01:52:17;22.35;;;11.23;;
53519;SDS011;39397;53.204;5.778;2023-03-01T01:54:53;24.88;;;11.88;;
53519;SDS011;39397;53.204;5.778;2023-03-01T01:57:32;29.42;;;11.85;;
53519;SDS011;39397;53.204;5.778;2023-03-01T02:00:04;21.95;;;11.02;;
53519;SDS011;39397;53.204;5.778;2023-03-01T02:02:40;23.75;;;11.82;;
53519;SDS011;39397;53.204;5.778;2023-03-01T02:08:00;30.23;;;11.45;;
53519;SDS011;39397;53.204;5.778;2023-03-01T02:10:26;36.08;;;13.50;;
53519;SDS011;39397;53.204;5.778;2023-03-01T02:12:53;28.45;;;11.95;;
53519;SDS011;39397;53.204;5.778;2023-03-01T02:15:21;26.85;;;13.48;;
53519;SDS011;39397;53.204;5.778;2023-03-01T02:17:48;28.08;;;12.80;;
53519;SDS011;39397;53.204;5.778;2023-03-01T02:22:45;36.40;;;14.18;;
53519;SDS011;39397;53.204;5.778;2023-03-01T02:25:19;125.30;;;16.25;;
53519;SDS011;39397;53.204;5.778;2023-03-01T02:30:29;115.70;;;15.70;;
53519;SDS011;39397;53.204;5.778;2023-03-01T02:32:56;113.78;;;19.08;;
53519;SDS011;39397;53.204;5.778;2023-03-01T02:35:27;181.20;;;19.02;;
53519;SDS011;39397;53.204;5.778;2023-03-01T02:37:57;162.43;;;20.58;;
53519;SDS011;39397;53.204;5.778;2023-03-01T02:40:25;166.10;;;20.10;;
53519;SDS011;39397;53.204;5.778;2023-03-01T02:42:54;106.50;;;17.08;;
53519;SDS011;39397;53.204;5.778;2023-03-01T02:45:23;180.35;;;21.67;;
53519;SDS011;39397;53.204;5.778;2023-03-01T02:47:49;246.05;;;23.10;;
53519;SDS011;39397;53.204;5.778;2023-03-01T02:55:25;47.58;;;14.82;;
53519;SDS011;39397;53.204;5.778;2023-03-01T02:57:52;74.22;;;19.15;;
53519;SDS011;39397;53.204;5.778;2023-03-01T03:00:23;40.13;;;17.00;;
53519;SDS011;39397;53.204;5.778;2023-03-01T03:02:53;38.75;;;17.38;;
53519;SDS011;39397;53.204;5.778;2023-03-01T03:05:28;32.75;;;15.55;;
53519;SDS011;39397;53.204;5.778;2023-03-01T03:07:56;27.77;;;14.95;;
53519;SDS011;39397;53.204;5.778;2023-03-01T03:10:24;28.75;;;14.60;;
53519;SDS011;39397;53.204;5.778;2023-03-01T03:13:02;25.40;;;13.15;;
53519;SDS011;39397;53.204;5.778;2023-03-01T03:15:29;28.50;;;14.63;;
53519;SDS011;39397;53.204;5.778;2023-03-01T03:17:56;29.77;;;14.50;;
53519;SDS011;39397;53.204;5.778;2023-03-01T03:42:30;32.92;;;13.90;;
53519;SDS011;39397;53.204;5.778;2023-03-01T03:44:56;87.07;;;17.88;;
53519;SDS011;39397;53.204;5.778;2023-03-01T03:47:22;46.65;;;15.85;;
53519;SDS011;39397;53.204;5.778;2023-03-01T03:49:47;44.00;;;15.77;;
53519;SDS011;39397;53.204;5.778;2023-03-01T03:52:13;38.88;;;15.85;;
53519;SDS011;39397;53.204;5.778;2023-03-01T03:54:40;101.05;;;17.83;;
53519;SDS011;39397;53.204;5.778;2023-03-01T03:57:06;43.20;;;15.25;;
53519;SDS011;39397;53.204;5.778;2023-03-01T03:59:32;306.83;;;29.50;;
53519;SDS011;39397;53.204;5.778;2023-03-01T04:01:57;116.05;;;19.80;;
53519;SDS011;39397;53.204;5.778;2023-03-01T04:04:23;201.05;;;24.48;;
53519;SDS011;39397;53.204;5.778;2023-03-01T04:06:49;130.70;;;18.75;;
53519;SDS011;39397;53.204;5.778;2023-03-01T04:09:14;163.00;;;18.83;;
53519;SDS011;39397;53.204;5.778;2023-03-01T04:11:40;91.60;;;17.50;;
53519;SDS011;39397;53.204;5.778;2023-03-01T04:14:06;118.55;;;18.73;;
53519;SDS011;39397;53.204;5.778;2023-03-01T04:16:31;74.45;;;16.25;;
53519;SDS011;39397;53.204;5.778;2023-03-01T04:18:57;70.43;;;16.95;;
53519;SDS011;39397;53.204;5.778;2023-03-01T04:21:24;129.70;;;21.73;;
53519;SDS011;39397;53.204;5.778;2023-03-01T04:23:51;75.65;;;18.90;;
53519;SDS011;39397;53.204;5.778;2023-03-01T04:26:17;47.88;;;17.90;;
53519;SDS011;39397;53.204;5.778;2023-03-01T04:28:44;33.67;;;16.33;;
53519;SDS011;39397;53.204;5.778;2023-03-01T04:31:20;33.90;;;16.92;;
53519;SDS011;39397;53.204;5.778;2023-03-01T04:33:53;33.60;;;16.48;;
53519;SDS011;39397;53.204;5.778;2023-03-01T04:36:21;27.85;;;15.80;;
53519;SDS011;39397;53.204;5.778;2023-03-01T04:38:49;28.60;;;14.35;;
53519;SDS011;39397;53.204;5.778;2023-03-01T04:41:16;29.23;;;14.80;;
53519;SDS011;39397;53.204;5.778;2023-03-01T04:43:43;30.83;;;14.98;;
53519;SDS011;39397;53.204;5.778;2023-03-01T04:46:11;24.60;;;14.05;;
53519;SDS011;39397;53.204;5.778;2023-03-01T04:48:39;28.10;;;15.82;;
53519;SDS011;39397;53.204;5.778;2023-03-01T04:51:05;29.90;;;15.63;;
53519;SDS011;39397;53.204;5.778;2023-03-01T04:53:32;28.50;;;14.48;;
53519;SDS011;39397;53.204;5.778;2023-03-01T04:55:58;25.88;;;14.57;;
53519;SDS011;39397;53.204;5.778;2023-03-01T04:58:25;28.27;;;14.60;;
53519;SDS011;39397;53.204;5.778;2023-03-01T05:00:52;27.35;;;13.68;;
53519;SDS011;39397;53.204;5.778;2023-03-01T05:03:19;27.02;;;14.63;;
53519;SDS011;39397;53.204;5.778;2023-03-01T05:05:45;25.90;;;14.77;;
53519;SDS011;39397;53.204;5.778;2023-03-01T05:08:13;25.10;;;14.00;;
53519;SDS011;39397;53.204;5.778;2023-03-01T05:10:52;25.20;;;13.80;;
53519;SDS011;39397;53.204;5.778;2023-03-01T05:13:19;29.48;;;15.82;;
53519;SDS011;39397;53.204;5.778;2023-03-01T05:15:46;29.15;;;15.18;;
53519;SDS011;39397;53.204;5.778;2023-03-01T05:18:18;25.75;;;15.23;;
53519;SDS011;39397;53.204;5.778;2023-03-01T05:20:44;27.85;;;15.45;;
53519;SDS011;39397;53.204;5.778;2023-03-01T05:23:10;33.45;;;16.08;;
53519;SDS011;39397;53.204;5.778;2023-03-01T05:25:36;28.27;;;15.30;;
53519;SDS011;39397;53.204;5.778;2023-03-01T05:28:06;34.40;;;16.38;;
53519;SDS011;39397;53.204;5.778;2023-03-01T05:30:35;29.77;;;15.45;;
53519;SDS011;39397;53.204;5.778;2023-03-01T05:33:01;25.25;;;14.70;;
53519;SDS011;39397;53.204;5.778;2023-03-01T05:35:27;38.35;;;21.92;;
53519;SDS011;39397;53.204;5.778;2023-03-01T05:37:54;30.52;;;15.80;;
53519;SDS011;39397;53.204;5.778;2023-03-01T05:40:20;26.38;;;15.32;;
53519;SDS011;39397;53.204;5.778;2023-03-01T05:42:52;27.20;;;14.45;;
53519;SDS011;39397;53.204;5.778;2023-03-01T05:45:19;29.40;;;14.40;;
53519;SDS011;39397;53.204;5.778;2023-03-01T05:47:47;24.05;;;13.88;;
53519;SDS011;39397;53.204;5.778;2023-03-01T05:50:18;28.10;;;14.90;;
53519;SDS011;39397;53.204;5.778;2023-03-01T05:52:46;30.38;;;15.45;;
53519;SDS011;39397;53.204;5.778;2023-03-01T05:55:17;26.67;;;15.18;;
53519;SDS011;39397;53.204;5.778;2023-03-01T05:57:44;23.35;;;13.10;;
53519;SDS011;39397;53.204;5.778;2023-03-01T06:00:10;22.05;;;12.90;;
53519;SDS011;39397;53.204;5.778;2023-03-01T06:02:37;58.28;;;15.77;;
53519;SDS011;39397;53.204;5.778;2023-03-01T06:05:04;97.93;;;14.70;;
53519;SDS011;39397;53.204;5.778;2023-03-01T06:07:31;59.08;;;13.35;;
53519;SDS011;39397;53.204;5.778;2023-03-01T06:09:57;59.40;;;12.52;;
53519;SDS011;39397;53.204;5.778;2023-03-01T06:12:23;110.28;;;13.57;;
53519;SDS011;39397;53.204;5.778;2023-03-01T06:14:50;60.05;;;15.65;;
53519;SDS011;39397;53.204;5.778;2023-03-01T06:17:16;59.17;;;14.00;;
53519;SDS011;39397;53.204;5.778;2023-03-01T06:19:42;66.80;;;15.23;;
53519;SDS011;39397;53.204;5.778;2023-03-01T06:22:08;37.88;;;17.20;;
53519;SDS011;39397;53.204;5.778;2023-03-01T06:24:33;52.10;;;18.35;;
53519;SDS011;39397;53.204;5.778;2023-03-01T06:26:59;28.67;;;14.15;;
53519;SDS011;39397;53.204;5.778;2023-03-01T06:29:25;36.70;;;14.30;;
53519;SDS011;39397;53.204;5.778;2023-03-01T06:31:51;26.50;;;14.38;;
53519;SDS011;39397;53.204;5.778;2023-03-01T06:34:16;32.33;;;12.98;;
53519;SDS011;39397;53.204;5.778;2023-03-01T06:36:42;43.17;;;12.95;;
53519;SDS011;39397;53.204;5.778;2023-03-01T06:39:08;29.90;;;11.93;;
53519;SDS011;39397;53.204;5.778;2023-03-01T06:41:34;205.02;;;21.35;;
53519;SDS011;39397;53.204;5.778;2023-03-01T06:43:59;23.42;;;10.88;;
53519;SDS011;39397;53.204;5.778;2023-03-01T06:46:25;25.63;;;12.40;;
53519;SDS011;39397;53.204;5.778;2023-03-01T06:48:51;31.33;;;12.35;;
53519;SDS011;39397;53.204;5.778;2023-03-01T06:51:17;18.77;;;11.35;;
53519;SDS011;39397;53.204;5.778;2023-03-01T06:53:42;26.98;;;12.55;;
53519;SDS011;39397;53.204;5.778;2023-03-01T06:56:08;18.88;;;11.40;;
53519;SDS011;39397;53.204;5.778;2023-03-01T06:58:34;23.17;;;12.30;;
53519;SDS011;39397;53.204;5.778;2023-03-01T07:00:59;22.83;;;12.98;;
53519;SDS011;39397;53.204;5.778;2023-03-01T07:03:25;23.08;;;12.45;;
53519;SDS011;39397;53.204;5.778;2023-03-01T07:05:51;19.15;;;11.50;;
53519;SDS011;39397;53.204;5.778;2023-03-01T07:08:17;18.48;;;11.57;;
53519;SDS011;39397;53.204;5.778;2023-03-01T07:10:43;18.15;;;12.25;;
53519;SDS011;39397;53.204;5.778;2023-03-01T07:13:09;18.52;;;11.80;;
53519;SDS011;39397;53.204;5.778;2023-03-01T07:15:35;18.17;;;11.80;;
53519;SDS011;39397;53.204;5.778;2023-03-01T07:18:01;18.42;;;11.93;;
53519;SDS011;39397;53.204;5.778;2023-03-01T07:20:27;16.55;;;11.38;;
53519;SDS011;39397;53.204;5.778;2023-03-01T07:22:53;18.98;;;12.05;;
53519;SDS011;39397;53.204;5.778;2023-03-01T07:25:20;17.77;;;11.73;;
53519;SDS011;39397;53.204;5.778;2023-03-01T07:27:49;18.90;;;12.35;;
53519;SDS011;39397;53.204;5.778;2023-03-01T07:30:16;19.40;;;13.13;;
53519;SDS011;39397;53.204;5.778;2023-03-01T07:32:42;21.60;;;13.40;;
53519;SDS011;39397;53.204;5.778;2023-03-01T07:35:08;23.85;;;17.08;;
53519;SDS011;39397;53.204;5.778;2023-03-01T07:37:33;23.63;;;16.58;;
53519;SDS011;39397;53.204;5.778;2023-03-01T07:39:59;23.05;;;16.67;;
53519;SDS011;39397;53.204;5.778;2023-03-01T07:42:25;25.80;;;18.63;;
53519;SDS011;39397;53.204;5.778;2023-03-01T07:44:50;21.52;;;16.25;;
53519;SDS011;39397;53.204;5.778;2023-03-01T07:47:16;24.17;;;17.38;;
53519;SDS011;39397;53.204;5.778;2023-03-01T07:49:42;24.23;;;15.57;;
53519;SDS011;39397;53.204;5.778;2023-03-01T07:52:09;23.63;;;15.50;;
53519;SDS011;39397;53.204;5.778;2023-03-01T07:54:36;27.45;;;17.65;;
53519;SDS011;39397;53.204;5.778;2023-03-01T07:57:01;26.50;;;16.55;;
53519;SDS011;39397;53.204;5.778;2023-03-01T07:59:27;25.30;;;16.48;;
53519;SDS011;39397;53.204;5.778;2023-03-01T08:01:57;28.15;;;17.15;;
53519;SDS011;39397;53.204;5.778;2023-03-01T08:04:23;26.50;;;17.73;;
53519;SDS011;39397;53.204;5.778;2023-03-01T08:06:52;25.60;;;17.10;;
53519;SDS011;39397;53.204;5.778;2023-03-01T08:09:18;26.50;;;16.60;;
53519;SDS011;39397;53.204;5.778;2023-03-01T08:11:44;27.98;;;18.75;;
53519;SDS011;39397;53.204;5.778;2023-03-01T08:14:10;30.15;;;19.45;;
53519;SDS011;39397;53.204;5.778;2023-03-01T08:16:36;30.85;;;19.10;;
53519;SDS011;39397;53.204;5.778;2023-03-01T08:19:05;28.75;;;19.13;;
53519;SDS011;39397;53.204;5.778;2023-03-01T08:21:32;29.38;;;18.60;;
53519;SDS011;39397;53.204;5.778;2023-03-01T08:24:00;29.23;;;18.95;;
53519;SDS011;39397;53.204;5.778;2023-03-01T08:26:27;29.83;;;18.90;;
53519;SDS011;39397;53.204;5.778;2023-03-01T08:28:53;32.05;;;21.33;;
53519;SDS011;39397;53.204;5.778;2023-03-01T08:31:20;31.10;;;19.58;;
53519;SDS011;39397;53.204;5.778;2023-03-01T08:33:47;32.28;;;20.00;;
53519;SDS011;39397;53.204;5.778;2023-03-01T08:36:16;33.25;;;19.88;;
53519;SDS011;39397;53.204;5.778;2023-03-01T08:38:43;29.17;;;19.17;;
53519;SDS011;39397;53.204;5.778;2023-03-01T08:41:09;33.83;;;19.92;;
53519;SDS011;39397;53.204;5.778;2023-03-01T08:43:34;34.70;;;21.10;;
53519;SDS011;39397;53.204;5.778;2023-03-01T08:46:01;33.47;;;19.77;;
53519;SDS011;39397;53.204;5.778;2023-03-01T08:48:27;31.08;;;20.48;;
53519;SDS011;39397;53.204;5.778;2023-03-01T08:50:54;29.45;;;18.95;;
53519;SDS011;39397;53.204;5.778;2023-03-01T08:53:20;27.05;;;19.38;;
53519;SDS011;39397;53.204;5.778;2023-03-01T08:55:46;27.23;;;18.20;;
53519;SDS011;39397;53.204;5.778;2023-03-01T08:58:11;29.35;;;18.50;;
53519;SDS011;39397;53.204;5.778;2023-03-01T09:00:37;24.70;;;17.75;;
53519;SDS011;39397;53.204;5.778;2023-03-01T09:03:03;25.30;;;17.65;;
53519;SDS011;39397;53.204;5.778;2023-03-01T09:05:31;24.75;;;17.70;;
53519;SDS011;39397;53.204;5.778;2023-03-01T09:07:58;22.38;;;16.73;;
53519;SDS011;39397;53.204;5.778;2023-03-01T09:10:23;22.00;;;15.10;;
53519;SDS011;39397;53.204;5.778;2023-03-01T09:12:49;22.10;;;15.68;;
53519;SDS011;39397;53.204;5.778;2023-03-01T09:15:16;21.13;;;15.82;;
53519;SDS011;39397;53.204;5.778;2023-03-01T09:17:41;19.35;;;14.57;;
53519;SDS011;39397;53.204;5.778;2023-03-01T09:20:07;19.65;;;15.02;;
53519;SDS011;39397;53.204;5.778;2023-03-01T09:22:33;19.40;;;13.95;;
53519;SDS011;39397;53.204;5.778;2023-03-01T09:25:00;20.33;;;15.05;;
53519;SDS011;39397;53.204;5.778;2023-03-01T09:27:26;20.90;;;15.60;;
53519;SDS011;39397;53.204;5.778;2023-03-01T09:29:52;20.58;;;15.35;;
53519;SDS011;39397;53.204;5.778;2023-03-01T09:32:17;22.52;;;15.95;;
53519;SDS011;39397;53.204;5.778;2023-03-01T09:34:43;20.45;;;16.35;;
53519;SDS011;39397;53.204;5.778;2023-03-01T09:37:29;24.05;;;16.95;;
53519;SDS011;39397;53.204;5.778;2023-03-01T09:39:56;20.75;;;16.33;;
53519;SDS011;39397;53.204;5.778;2023-03-01T09:42:21;20.48;;;14.95;;
53519;SDS011;39397;53.204;5.778;2023-03-01T09:44:48;20.90;;;14.32;;
53519;SDS011;39397;53.204;5.778;2023-03-01T09:47:24;17.60;;;13.73;;
53519;SDS011;39397;53.204;5.778;2023-03-01T09:50:14;19.48;;;14.18;;
53519;SDS011;39397;53.204;5.778;2023-03-01T10:00:38;16.67;;;13.13;;
53519;SDS011;39397;53.204;5.778;2023-03-01T10:03:13;24.10;;;13.85;;
53519;SDS011;39397;53.204;5.778;2023-03-01T10:11:15;19.23;;;13.50;;
53519;SDS011;39397;53.204;5.778;2023-03-01T10:13:51;18.42;;;12.63;;
53519;SDS011;39397;53.204;5.778;2023-03-01T10:16:55;15.68;;;12.63;;
53519;SDS011;39397;53.204;5.778;2023-03-01T10:19:24;18.80;;;13.60;;
53519;SDS011;39397;53.204;5.778;2023-03-01T10:21:57;18.02;;;12.18;;
53519;SDS011;39397;53.204;5.778;2023-03-01T10:24:29;15.52;;;11.98;;
53519;SDS011;39397;53.204;5.778;2023-03-01T10:27:05;17.00;;;13.15;;
53519;SDS011;39397;53.204;5.778;2023-03-01T10:29:53;15.35;;;11.25;;
53519;SDS011;39397;53.204;5.778;2023-03-01T10:32:20;16.90;;;11.07;;
53519;SDS011;39397;53.204;5.778;2023-03-01T10:34:47;16.77;;;11.35;;
53519;SDS011;39397;53.204;5.778;2023-03-01T10:37:19;14.77;;;11.95;;
53519;SDS011;39397;53.204;5.778;2023-03-01T10:40:09;17.50;;;12.25;;
53519;SDS011;39397;53.204;5.778;2023-03-01T10:47:44;13.77;;;10.77;;
53519;SDS011;39397;53.204;5.778;2023-03-01T10:50:20;14.00;;;10.73;;
53519;SDS011;39397;53.204;5.778;2023-03-01T10:53:48;13.60;;;10.88;;
53519;SDS011;39397;53.204;5.778;2023-03-01T10:58:37;14.52;;;10.73;;
53519;SDS011;39397;53.204;5.778;2023-03-01T11:01:06;14.18;;;11.30;;
53519;SDS011;39397;53.204;5.778;2023-03-01T11:04:11;15.13;;;9.85;;
53519;SDS011;39397;53.204;5.778;2023-03-01T11:06:37;14.80;;;9.38;;
53519;SDS011;39397;53.204;5.778;2023-03-01T11:09:14;12.02;;;10.00;;
53519;SDS011;39397;53.204;5.778;2023-03-01T11:11:45;13.23;;;10.07;;
53519;SDS011;39397;53.204;5.778;2023-03-01T11:14:21;12.60;;;9.50;;
53519;SDS011;39397;53.204;5.778;2023-03-01T11:16:59;12.63;;;9.73;;
53519;SDS011;39397;53.204;5.778;2023-03-01T11:19:29;13.15;;;9.43;;
53519;SDS011;39397;53.204;5.778;2023-03-01T11:24:34;13.65;;;10.05;;
53519;SDS011;39397;53.204;5.778;2023-03-01T11:27:08;13.32;;;10.40;;
53519;SDS011;39397;53.204;5.778;2023-03-01T11:29:44;11.68;;;9.00;;
53519;SDS011;39397;53.204;5.778;2023-03-01T11:32:16;12.55;;;9.10;;
53519;SDS011;39397;53.204;5.778;2023-03-01T11:35:00;11.70;;;7.88;;
53519;SDS011;39397;53.204;5.778;2023-03-01T11:40:29;9.63;;;7.60;;
53519;SDS011;39397;53.204;5.778;2023-03-01T11:45:46;12.57;;;7.60;;
53519;SDS011;39397;53.204;5.778;2023-03-01T11:51:02;10.40;;;8.07;;
53519;SDS011;39397;53.204;5.778;2023-03-01T12:04:59;12.57;;;8.48;;
53519;SDS011;39397;53.204;5.778;2023-03-01T12:10:19;13.10;;;10.55;;
53519;SDS011;39397;53.204;5.778;2023-03-01T12:13:03;11.65;;;8.93;;
53519;SDS011;39397;53.204;5.778;2023-03-01T12:15:45;12.73;;;9.98;;
53519;SDS011;39397;53.204;5.778;2023-03-01T12:26:46;14.20;;;10.82;;
53519;SDS011;39397;53.204;5.778;2023-03-01T12:37:35;12.48;;;10.23;;
53519;SDS011;39397;53.204;5.778;2023-03-01T12:43:04;14.63;;;10.27;;
53519;SDS011;39397;53.204;5.778;2023-03-01T12:51:23;13.18;;;10.00;;
53519;SDS011;39397;53.204;5.778;2023-03-01T12:53:53;13.73;;;11.18;;
53519;SDS011;39397;53.204;5.778;2023-03-01T12:56:21;15.73;;;10.75;;
53519;SDS011;39397;53.204;5.778;2023-03-01T12:59:12;13.75;;;10.88;;
53519;SDS011;39397;53.204;5.778;2023-03-01T13:07:53;14.25;;;11.07;;
53519;SDS011;39397;53.204;5.778;2023-03-01T13:10:26;15.52;;;10.80;;
53519;SDS011;39397;53.204;5.778;2023-03-01T13:13:13;14.60;;;10.68;;
53519;SDS011;39397;53.204;5.778;2023-03-01T13:15:44;14.38;;;10.48;;
53519;SDS011;39397;53.204;5.778;2023-03-01T13:31:00;13.88;;;10.43;;
53519;SDS011;39397;53.204;5.778;2023-03-01T13:35:53;13.07;;;9.75;;
53519;SDS011;39397;53.204;5.778;2023-03-01T13:46:47;14.40;;;10.38;;
53519;SDS011;39397;53.204;5.778;2023-03-01T13:49:17;12.27;;;10.30;;
53519;SDS011;39397;53.204;5.778;2023-03-01T13:51:46;12.48;;;9.95;;
53519;SDS011;39397;53.204;5.778;2023-03-01T13:54:16;14.00;;;9.57;;
53519;SDS011;39397;53.204;5.778;2023-03-01T13:56:45;12.32;;;9.50;;
53519;SDS011;39397;53.204;5.778;2023-03-01T13:59:18;11.68;;;9.30;;
53519;SDS011;39397;53.204;5.778;2023-03-01T14:01:56;11.98;;;9.48;;
53519;SDS011;39397;53.204;5.778;2023-03-01T14:09:44;13.63;;;10.20;;
53519;SDS011;39397;53.204;5.778;2023-03-01T14:17:55;14.77;;;10.07;;
53519;SDS011;39397;53.204;5.778;2023-03-01T14:20:26;13.60;;;10.35;;
53519;SDS011;39397;53.204;5.778;2023-03-01T14:22:57;13.05;;;10.90;;
53519;SDS011;39397;53.204;5.778;2023-03-01T14:25:33;14.35;;;10.10;;
53519;SDS011;39397;53.204;5.778;2023-03-01T14:28:11;13.88;;;10.27;;
53519;SDS011;39397;53.204;5.778;2023-03-01T14:30:49;12.65;;;9.68;;
53519;SDS011;39397;53.204;5.778;2023-03-01T14:33:18;13.52;;;10.15;;
53519;SDS011;39397;53.204;5.778;2023-03-01T14:35:57;14.77;;;9.75;;
53519;SDS011;39397;53.204;5.778;2023-03-01T14:38:29;11.10;;;9.20;;
53519;SDS011;39397;53.204;5.778;2023-03-01T14:43:46;12.93;;;9.38;;
53519;SDS011;39397;53.204;5.778;2023-03-01T14:46:17;14.60;;;9.20;;
53519;SDS011;39397;53.204;5.778;2023-03-01T14:48:53;15.00;;;9.57;;
53519;SDS011;39397;53.204;5.778;2023-03-01T14:51:23;12.10;;;9.40;;
53519;SDS011;39397;53.204;5.778;2023-03-01T14:53:49;12.80;;;8.75;;
53519;SDS011;39397;53.204;5.778;2023-03-01T14:56:16;12.73;;;8.52;;
53519;SDS011;39397;53.204;5.778;2023-03-01T14:58:45;12.40;;;9.25;;
53519;SDS011;39397;53.204;5.778;2023-03-01T15:01:16;11.80;;;9.27;;
53519;SDS011;39397;53.204;5.778;2023-03-01T15:03:43;12.13;;;9.00;;
53519;SDS011;39397;53.204;5.778;2023-03-01T15:06:17;14.23;;;9.15;;
53519;SDS011;39397;53.204;5.778;2023-03-01T15:08:49;14.13;;;10.68;;
53519;SDS011;39397;53.204;5.778;2023-03-01T15:11:20;13.07;;;9.48;;
53519;SDS011;39397;53.204;5.778;2023-03-01T15:13:50;12.27;;;9.52;;
53519;SDS011;39397;53.204;5.778;2023-03-01T15:16:17;10.65;;;7.53;;
53519;SDS011;39397;53.204;5.778;2023-03-01T15:18:47;16.00;;;8.23;;
53519;SDS011;39397;53.204;5.778;2023-03-01T15:21:20;9.98;;;7.03;;
53519;SDS011;39397;53.204;5.778;2023-03-01T15:23:53;9.63;;;7.07;;
53519;SDS011;39397;53.204;5.778;2023-03-01T15:26:28;10.57;;;7.30;;
53519;SDS011;39397;53.204;5.778;2023-03-01T15:29:04;9.95;;;7.10;;
53519;SDS011;39397;53.204;5.778;2023-03-01T15:31:42;8.77;;;7.00;;
53519;SDS011;39397;53.204;5.778;2023-03-01T15:34:10;12.25;;;7.63;;
53519;SDS011;39397;53.204;5.778;2023-03-01T15:36:47;10.85;;;7.55;;
53519;SDS011;39397;53.204;5.778;2023-03-01T15:39:35;11.15;;;7.75;;
53519;SDS011;39397;53.204;5.778;2023-03-01T15:42:07;10.52;;;7.40;;
53519;SDS011;39397;53.204;5.778;2023-03-01T15:44:37;10.32;;;6.97;;
53519;SDS011;39397;53.204;5.778;2023-03-01T15:47:28;10.10;;;7.20;;
53519;SDS011;39397;53.204;5.778;2023-03-01T15:49:57;11.27;;;7.90;;
53519;SDS011;39397;53.204;5.778;2023-03-01T15:55:00;11.20;;;8.57;;
53519;SDS011;39397;53.204;5.778;2023-03-01T15:57:29;11.75;;;8.85;;
53519;SDS011;39397;53.204;5.778;2023-03-01T15:59:55;12.48;;;8.63;;
53519;SDS011;39397;53.204;5.778;2023-03-01T16:02:21;12.45;;;8.15;;
53519;SDS011;39397;53.204;5.778;2023-03-01T16:04:49;12.27;;;9.40;;
53519;SDS011;39397;53.204;5.778;2023-03-01T16:07:15;13.23;;;10.02;;
53519;SDS011;39397;53.204;5.778;2023-03-01T16:09:41;13.73;;;9.40;;
53519;SDS011;39397;53.204;5.778;2023-03-01T16:12:11;15.40;;;9.23;;
53519;SDS011;39397;53.204;5.778;2023-03-01T16:14:40;11.80;;;9.45;;
53519;SDS011;39397;53.204;5.778;2023-03-01T16:17:05;12.18;;;9.15;;
53519;SDS011;39397;53.204;5.778;2023-03-01T16:19:34;14.10;;;9.52;;
53519;SDS011;39397;53.204;5.778;2023-03-01T16:22:02;13.27;;;10.40;;
53519;SDS011;39397;53.204;5.778;2023-03-01T16:24:28;14.65;;;10.93;;
53519;SDS011;39397;53.204;5.778;2023-03-01T16:26:55;15.25;;;11.88;;
53519;SDS011;39397;53.204;5.778;2023-03-01T16:29:20;19.38;;;11.98;;
53519;SDS011;39397;53.204;5.778;2023-03-01T16:31:46;16.83;;;11.93;;
53519;SDS011;39397;53.204;5.778;2023-03-01T16:34:12;17.80;;;12.93;;
53519;SDS011;39397;53.204;5.778;2023-03-01T16:36:38;20.75;;;14.77;;
53519;SDS011;39397;53.204;5.778;2023-03-01T16:39:04;17.92;;;13.70;;
53519;SDS011;39397;53.204;5.778;2023-03-01T16:41:31;20.52;;;13.93;;
53519;SDS011;39397;53.204;5.778;2023-03-01T16:43:57;20.83;;;15.05;;
53519;SDS011;39397;53.204;5.778;2023-03-01T16:46:24;22.95;;;14.90;;
53519;SDS011;39397;53.204;5.778;2023-03-01T16:48:55;22.13;;;15.38;;
53519;SDS011;39397;53.204;5.778;2023-03-01T16:51:21;20.17;;;15.60;;
53519;SDS011;39397;53.204;5.778;2023-03-01T16:53:48;24.20;;;14.88;;
53519;SDS011;39397;53.204;5.778;2023-03-01T16:56:15;25.08;;;14.55;;
53519;SDS011;39397;53.204;5.778;2023-03-01T16:58:41;21.02;;;14.45;;
53519;SDS011;39397;53.204;5.778;2023-03-01T17:01:08;25.50;;;14.20;;
53519;SDS011;39397;53.204;5.778;2023-03-01T17:03:36;20.92;;;14.77;;
53519;SDS011;39397;53.204;5.778;2023-03-01T17:06:04;21.33;;;14.27;;
53519;SDS011;39397;53.204;5.778;2023-03-01T17:08:32;21.77;;;14.73;;
53519;SDS011;39397;53.204;5.778;2023-03-01T17:11:08;20.45;;;14.20;;
53519;SDS011;39397;53.204;5.778;2023-03-01T17:13:36;22.52;;;14.50;;